UGSB/BUS METAR and TAF weather

Enter ICAO airport designator
Station Type Date Time Source
UGSB METAR 2021/03/08 16:00 UTC NOAA

UGSB 081600Z 01003KT 320V080 9999 FEW030 BKN100 05/01 Q1020 R13/19//60 NOSIG


Station Type Date Time Source
UGSB Decoded METAR 2021/03/08 16:00 UTC NOAA

Station name not available
Mar 08, 2021 - 11:00 AM EST / 2021.03.08 1600 UTC
Wind: from the N (010 degrees) at 3 MPH (3 KT) (direction variable):0
Visibility: greater than 7 mile(s):0
Sky conditions: mostly cloudy
Temperature: 41 F (5 C)
Dew Point: 33 F (1 C)
Relative Humidity: 75%
Pressure (altimeter): 30.12 in. Hg (1020 hPa)
ob: UGSB 081600Z 01003KT 320V080 9999 FEW030 BKN100 05/01 Q1020 R13/19//60 NOSIG
cycle: 16

Station Type Date Time Source
UGSB TAF 2021/03/08 12:04 UTC NOAA

TAF UGSB 081100Z 0812/0912 34007KT 9999 SCT025 BKN080 TX09/0912Z TN02/0903Z
BECMG 0817/0819 12010KT SCT100
BECMG 0820/0822 CAVOK
BECMG 0907/0909 36007KT

Example: see airport list